Inkster, MI (48141)

5:27 AM EDT on September 01, 2015 (GMT -0400)
Garden City Weather | | Change Station
CLOSE
Current Station
Personal Weather Station
Location: Garden City, MI
Elevation: 640 ft
Nearby Weather Stations

Elev 640 ft 42.32 °N, 83.35 °W | Updated 19 seconds ago

Partly Cloudy
Partly Cloudy
65.4 °F
Feels Like 65.4 °F
N
0.0
Wind Variable Wind from NNW
Gusts 0.0 mph

Today
High -- | Low -- °F
--% Chance of Precip.
Yesterday
High -- | Low -- °F
Precip. -- in
6:58 AM 8:07 PM
Waning Gibbous, 90% visible
Pressure 30.06 in
Visibility 1.5 miles
Clouds Scattered Clouds 200 ft
Dew Point 61 °F
Humidity 87%
Rainfall 0.00 in
Snow Depth Not available.
UV 0 out of 12
Pollen 7.60 out of 12
Air Quality Not available.
Flu Activity Not available.
METAR KDTW 010853Z 00000KT 1 1/2SM BR SCT002 21/19 A3008 RMK AO2 TWR VIS 4 SLP180 T02060189 53001
Pressure 30.06 in
Visibility 1.5 miles
Clouds Scattered Clouds 200 ft
Dew Point 61 °F
Humidity 87%
Rainfall 0.00 in
Snow Depth Not available.
UV 0 out of 12
Pollen 7.60 out of 12
Air Quality Not available.
Flu Activity Not available.
METAR KDTW 010853Z 00000KT 1 1/2SM BR SCT002 21/19 A3008 RMK AO2 TWR VIS 4 SLP180 T02060189 53001

10-Day Weather Forecast

×

Almanac

Astronomy

Sep. 01, 2015 Rise Set
Actual Time
Civil Twilight
Nautical Twilight
Astronomical Twilight
Moon
Length of Visible Light
Length of Day
Tomorrow will be .
, % of the Moon is Illuminated

Today's Extremes

State Highs State Lows

Community

WunderPhotos

Upload Photos

1,851,490 photos uploaded!

WunderBlogs® & News

Nearby

Air Quality

  Air Quality AQ Index Pollutant
Not available.

Snow Depth

Station Depth Elevation

Earthquake Activity

City Distance Mag. Time & Date
Minimum magnitude displayed is 2.5.

Coastal Water Temperatures

Place Temperature

Stations

Nearby Weather Stations

Station Location Temp. Windchill Dew Point Humidity Wind Precip. Elev Updated Type